createdAt,value
2018-07-09T00:02:50.407Z,14.9
2018-07-09T00:07:52.520Z,14.8
2018-07-09T00:12:54.766Z,14.7
2018-07-09T00:17:57.188Z,14.6
2018-07-09T00:22:59.441Z,14.5
2018-07-09T00:28:01.832Z,14.4
2018-07-09T00:33:04.193Z,14.3
2018-07-09T00:38:06.345Z,14.2
2018-07-09T00:43:08.676Z,14.1
2018-07-09T00:48:10.870Z,14.1
2018-07-09T00:53:13.342Z,14
2018-07-09T00:58:15.493Z,14
2018-07-09T01:08:20.219Z,13.9
2018-07-09T01:13:22.449Z,13.8
2018-07-09T01:18:24.632Z,13.8
2018-07-09T01:23:27.016Z,13.8
2018-07-09T01:28:29.406Z,13.8
2018-07-09T01:33:31.505Z,13.6
2018-07-09T01:38:33.825Z,13.5
2018-07-09T01:43:36.222Z,13.5
2018-07-09T01:48:38.668Z,13.4
2018-07-09T01:53:40.657Z,13.4
2018-07-09T01:58:43.056Z,13.3
2018-07-09T02:03:45.257Z,13.3
2018-07-09T02:08:47.655Z,13.2
2018-07-09T02:13:49.960Z,13.1
2018-07-09T02:18:52.264Z,13.1
2018-07-09T02:23:54.466Z,13
2018-07-09T02:28:56.844Z,13
2018-07-09T02:33:59.330Z,13
2018-07-09T02:39:01.552Z,12.9
2018-07-09T02:44:03.714Z,12.9
2018-07-09T02:49:05.952Z,12.8
2018-07-09T02:54:08.333Z,12.7
2018-07-09T03:04:12.780Z,12.7
2018-07-09T03:09:15.310Z,12.6
2018-07-09T03:14:17.527Z,12.6
2018-07-09T03:19:19.746Z,12.6
2018-07-09T03:24:21.981Z,12.5
2018-07-09T03:29:24.409Z,12.5
2018-07-09T03:34:26.556Z,12.5
2018-07-09T03:39:28.852Z,12.4
2018-07-09T03:44:31.255Z,12.4
2018-07-09T03:49:33.410Z,12.5
2018-07-09T03:54:35.809Z,12.5
2018-07-09T03:59:38.050Z,12.5
2018-07-09T04:04:40.355Z,12.5
2018-07-09T04:09:42.709Z,12.5
2018-07-09T04:14:45.142Z,12.5
2018-07-09T04:19:47.340Z,12.5
2018-07-09T04:24:49.542Z,12.5
2018-07-09T04:29:51.961Z,12.5
2018-07-09T04:34:54.272Z,12.6
2018-07-09T04:39:56.439Z,12.6
2018-07-09T04:44:58.635Z,12.6
2018-07-09T04:50:01.053Z,12.7
2018-07-09T04:55:03.239Z,12.8
2018-07-09T05:00:05.554Z,12.8
2018-07-09T05:05:07.945Z,12.9
2018-07-09T05:10:10.224Z,13
2018-07-09T05:15:12.516Z,13.1
2018-07-09T05:20:14.723Z,13.3
2018-07-09T05:25:17.113Z,13.6
2018-07-09T05:30:19.396Z,13.8
2018-07-09T05:35:21.672Z,14.1
2018-07-09T05:40:23.904Z,14.4
2018-07-09T05:45:26.322Z,14.7
2018-07-09T05:50:28.503Z,15.2
2018-07-09T05:55:30.804Z,15.7
2018-07-09T06:00:33.117Z,16
2018-07-09T06:05:35.495Z,16.4
2018-07-09T06:10:37.718Z,16.799999
2018-07-09T06:15:40.026Z,17.1
2018-07-09T06:20:42.272Z,17.4
2018-07-09T06:25:44.604Z,17.799999
2018-07-09T06:30:46.924Z,18.1
2018-07-09T06:35:49.205Z,18.5
2018-07-09T06:40:51.501Z,18.799999
2018-07-09T06:45:53.885Z,19
2018-07-09T06:50:56.084Z,19.299999
2018-07-09T06:55:58.633Z,19.700001
2018-07-09T07:01:00.819Z,19.9
2018-07-09T07:06:02.980Z,20.1
2018-07-09T07:11:05.181Z,20.299999
2018-07-09T07:16:07.614Z,20.6
2018-07-09T07:21:09.943Z,21.1
2018-07-09T07:26:12.213Z,21.4
2018-07-09T07:31:14.456Z,21.799999
2018-07-09T07:36:16.980Z,22
2018-07-09T07:41:19.062Z,22.299999
2018-07-09T07:46:21.453Z,22.5
2018-07-09T07:51:23.703Z,22.799999
2018-07-09T07:56:25.972Z,23.200001
2018-07-09T08:01:28.183Z,23.799999
2018-07-09T08:06:30.727Z,23.799999
2018-07-09T08:11:48.556Z,24.4
2018-07-09T08:16:35.016Z,24.6
2018-07-09T08:21:37.488Z,24.6
2018-07-09T08:26:39.644Z,24.799999
2018-07-09T08:31:41.997Z,25
2018-07-09T08:36:44.279Z,25.799999
2018-07-09T08:46:49.789Z,26.299999
2018-07-09T08:51:52.105Z,26.4
2018-07-09T08:56:54.240Z,26.4
2018-07-09T09:01:56.702Z,26.6
2018-07-09T09:06:58.922Z,26.9
2018-07-09T09:12:01.217Z,26.9
2018-07-09T09:17:03.411Z,27.299999
2018-07-09T09:22:05.875Z,27.700001
2018-07-09T09:27:08.258Z,27.200001
2018-07-09T09:32:10.267Z,27.6
2018-07-09T09:37:12.797Z,28.1
2018-07-09T09:42:14.942Z,27.700001
2018-07-09T09:47:17.191Z,28.1
2018-07-09T09:52:19.569Z,28.1
2018-07-09T09:57:21.896Z,26.6
2018-07-09T10:02:24.235Z,26.1
2018-07-09T10:07:26.414Z,25.9
2018-07-09T10:12:28.708Z,26.4
2018-07-09T10:17:31.104Z,26.5
2018-07-09T10:22:33.273Z,26.200001
2018-07-09T10:27:35.587Z,26
2018-07-09T10:32:37.975Z,26.1
2018-07-09T10:37:40.163Z,26.200001
2018-07-09T10:42:42.510Z,26.1
2018-07-09T10:47:44.918Z,25.9
2018-07-09T10:52:47.000Z,25.700001
2018-07-09T11:02:51.608Z,25.700001
2018-07-09T11:07:54.029Z,26.5
2018-07-09T11:12:56.282Z,27.200001
2018-07-09T11:17:58.553Z,28.4
2018-07-09T11:23:00.820Z,28.5
2018-07-09T11:28:03.194Z,28.6
2018-07-09T11:33:05.435Z,28.299999
2018-07-09T11:38:07.738Z,27.9
2018-07-09T11:43:10.045Z,28.1
2018-07-09T11:48:12.356Z,26.700001
2018-07-09T11:53:14.622Z,26.9
2018-07-09T11:58:16.944Z,27.4
2018-07-09T12:03:19.195Z,28.1
2018-07-09T12:08:21.524Z,28.799999
2018-07-09T12:13:23.940Z,28.700001
2018-07-09T12:18:26.140Z,28.1
2018-07-09T12:23:28.406Z,27.9
2018-07-09T12:28:30.749Z,27.700001
2018-07-09T12:33:32.930Z,27.299999
2018-07-09T12:38:35.403Z,26.5
2018-07-09T12:43:37.484Z,25.6
2018-07-09T12:48:39.858Z,26.200001
2018-07-09T12:53:42.126Z,26.6
2018-07-09T12:58:44.485Z,26.299999
2018-07-09T13:03:46.746Z,26.700001
2018-07-09T13:08:49.006Z,27.6
2018-07-09T13:13:51.334Z,27.9
2018-07-09T13:18:53.565Z,27.6
2018-07-09T13:23:55.843Z,26.5
2018-07-09T13:28:58.226Z,26.1
2018-07-09T13:34:00.531Z,25.799999
2018-07-09T13:39:02.865Z,25.4
2018-07-09T13:44:05.105Z,25.200001
2018-07-09T13:49:07.523Z,25.4
2018-07-09T13:54:09.650Z,25.6
2018-07-09T13:59:11.993Z,26.200001
2018-07-09T14:04:14.325Z,26.6
2018-07-09T14:09:16.648Z,26.799999
2018-07-09T14:14:18.940Z,26.299999
2018-07-09T14:19:21.145Z,26.200001
2018-07-09T14:24:23.509Z,26.700001
2018-07-09T14:29:25.849Z,26.9
2018-07-09T14:34:28.026Z,26.5
2018-07-09T14:39:30.367Z,25.6
2018-07-09T14:44:32.617Z,24.700001
2018-07-09T14:49:34.914Z,24.299999
2018-07-09T14:54:37.305Z,24
2018-07-09T14:59:39.493Z,23.9
2018-07-09T15:04:41.805Z,23.6
2018-07-09T15:09:44.168Z,23.700001
2018-07-09T15:14:46.521Z,23.6
2018-07-09T15:19:48.650Z,23.299999
2018-07-09T15:24:50.999Z,23
2018-07-09T15:29:53.306Z,22.9
2018-07-09T15:34:55.669Z,22.799999
2018-07-09T15:39:57.840Z,22.9
2018-07-09T15:45:00.091Z,23.1
2018-07-09T15:50:02.483Z,23.700001
2018-07-09T15:55:04.922Z,24.1
2018-07-09T16:00:07.191Z,24.700001
2018-07-09T16:05:09.518Z,26.1
2018-07-09T16:10:11.830Z,26.9
2018-07-09T16:15:14.020Z,26.9
2018-07-09T16:20:16.177Z,26.700001
2018-07-09T16:25:18.468Z,26.4
2018-07-09T16:30:20.822Z,26.1
2018-07-09T16:35:23.173Z,25.799999
2018-07-09T16:40:25.371Z,26
2018-07-09T16:45:27.717Z,26.200001
2018-07-09T16:50:29.955Z,26.4
2018-07-09T16:55:32.298Z,26.200001
2018-07-09T17:00:34.522Z,26.1
2018-07-09T17:05:36.921Z,25.799999
2018-07-09T17:10:39.129Z,25.4
2018-07-09T17:15:41.416Z,25.299999
2018-07-09T17:20:43.795Z,25
2018-07-09T17:25:46.054Z,24.6
2018-07-09T17:30:48.278Z,24.299999
2018-07-09T17:35:50.854Z,24.299999
2018-07-09T17:40:53.000Z,24
2018-07-09T17:45:55.153Z,23.799999
2018-07-09T17:50:57.519Z,23.6
2018-07-09T17:56:00.073Z,23.5
2018-07-09T18:01:02.285Z,23.4
2018-07-09T18:06:04.430Z,23.4
2018-07-09T18:11:06.630Z,23.299999
2018-07-09T18:16:09.163Z,23.200001
2018-07-09T18:21:11.347Z,23
2018-07-09T18:26:13.522Z,22.9
2018-07-09T18:31:15.975Z,22.9
2018-07-09T18:36:18.223Z,22.799999
2018-07-09T18:41:20.399Z,22.5
2018-07-09T18:46:22.840Z,22.299999
2018-07-09T18:51:25.137Z,21.9
2018-07-09T18:56:27.350Z,21.700001
2018-07-09T19:01:29.609Z,21.6
2018-07-09T19:06:31.999Z,21.4
2018-07-09T19:11:34.267Z,21.200001
2018-07-09T19:16:36.624Z,21.1
2018-07-09T19:21:38.917Z,21
2018-07-09T19:26:41.216Z,20.799999
2018-07-09T19:31:43.434Z,20.700001
2018-07-09T19:36:45.679Z,20.5
2018-07-09T19:41:48.161Z,20.299999
2018-07-09T19:46:50.357Z,20.299999
2018-07-09T19:51:52.602Z,20.200001
2018-07-09T19:56:55.008Z,20.200001
2018-07-09T20:01:57.146Z,20
2018-07-09T20:06:59.571Z,20
2018-07-09T20:12:01.849Z,20
2018-07-09T20:17:04.043Z,20
2018-07-09T20:22:06.332Z,19.9
2018-07-09T20:27:08.791Z,19.700001
2018-07-09T20:32:11.200Z,19.5
2018-07-09T20:37:13.147Z,19.4
2018-07-09T20:42:15.540Z,19.1
2018-07-09T20:47:17.855Z,19.1
2018-07-09T20:52:20.069Z,19.1
2018-07-09T20:57:22.548Z,19
2018-07-09T21:02:24.790Z,18.700001
2018-07-09T21:07:26.951Z,18.6
2018-07-09T21:12:29.296Z,18.299999
2018-07-09T21:17:31.707Z,18
2018-07-09T21:22:33.976Z,17.799999
2018-07-09T21:27:36.193Z,17.6
2018-07-09T21:32:38.477Z,17.5
2018-07-09T21:37:40.910Z,17.4
2018-07-09T21:42:43.159Z,17.4
2018-07-09T21:47:45.358Z,17.4
2018-07-09T21:52:47.633Z,17.299999
2018-07-09T21:57:50.004Z,17.200001
2018-07-09T22:02:52.371Z,17.1
2018-07-09T22:07:54.643Z,17.1
2018-07-09T22:12:56.971Z,17.200001
2018-07-09T22:17:59.235Z,17.200001
2018-07-09T22:23:01.389Z,17.299999
2018-07-09T22:28:03.869Z,17.1
2018-07-09T22:33:06.117Z,16.9
2018-07-09T22:38:08.365Z,16.799999
2018-07-09T22:43:10.764Z,16.700001
2018-07-09T22:48:12.969Z,16.6
2018-07-09T22:53:15.431Z,16.4
2018-07-09T22:58:17.389Z,16.200001
2018-07-09T23:03:19.709Z,16.1
2018-07-09T23:08:22.053Z,16
2018-07-09T23:13:24.374Z,16
2018-07-09T23:18:26.639Z,15.9
2018-07-09T23:23:29.004Z,15.9
2018-07-09T23:28:31.231Z,15.9
2018-07-09T23:33:33.471Z,15.8
2018-07-09T23:38:35.818Z,15.8
2018-07-09T23:43:38.210Z,15.9
2018-07-09T23:48:40.383Z,15.9
2018-07-09T23:53:42.727Z,16
2018-07-09T23:58:44.973Z,16
